Time;durP1;ratioP1;P1;durP2;ratioP2;P2;SDS_P1;SDS_P2;PMS_P1;PMS_P2;Temp;Humidity;BMP_temperature;BMP_pressure;BME280_temperature;BME280_humidity;BME280_pressure;Samples;Min_cycle;Max_cycle;Signal;HPM_P1;HPM_P2
2022/09/18 00:01:35;;;;;;;0.00;0.00;;;11.70;99.90;;;;;;5050491;28;20485;-88
2022/09/18 00:04:07;;;;;;;0.00;0.00;;;11.70;99.90;;;;;;5053738;28;20473;-88
2022/09/18 00:06:38;;;;;;;0.00;0.00;;;11.70;99.90;;;;;;5054416;28;20453;-88
2022/09/18 00:09:08;;;;;;;0.00;0.00;;;11.70;99.90;;;;;;5052894;28;20441;-88
2022/09/18 00:11:38;;;;;;;0.00;0.00;;;11.60;99.90;;;;;;5050926;28;20454;-89
2022/09/18 00:14:07;;;;;;;0.00;0.00;;;11.60;99.90;;;;;;5050764;28;20451;-88
2022/09/18 00:16:36;;;;;;;0.00;0.00;;;11.50;99.90;;;;;;5053260;28;20819;-89
2022/09/18 00:19:06;;;;;;;0.00;0.00;;;11.40;99.90;;;;;;5047870;28;20437;-89
2022/09/18 00:21:36;;;;;;;0.00;0.00;;;11.40;99.90;;;;;;5048515;28;20456;-88
2022/09/18 00:24:05;;;;;;;0.00;0.00;;;11.30;99.90;;;;;;5050565;28;20496;-88
2022/09/18 00:26:34;;;;;;;0.00;0.00;;;11.20;99.90;;;;;;5054478;28;20479;-89
2022/09/18 00:29:02;;;;;;;0.00;0.00;;;11.20;99.90;;;;;;5053755;28;20871;-88
2022/09/18 00:31:32;;;;;;;0.00;0.00;;;11.10;99.90;;;;;;5054684;28;20476;-88
2022/09/18 00:34:02;;;;;;;0.00;0.00;;;11.20;99.90;;;;;;5052592;28;20848;-88
2022/09/18 00:36:32;;;;;;;0.00;0.00;;;11.30;99.90;;;;;;5051696;28;20454;-89
2022/09/18 00:39:00;;;;;;;0.00;0.00;;;11.40;99.90;;;;;;5055328;28;20434;-88
2022/09/18 00:41:31;;;;;;;0.00;0.00;;;11.50;99.90;;;;;;5049533;28;20454;-88
2022/09/18 00:44:31;;;;;;;0.00;0.00;;;11.60;99.90;;;;;;5052555;28;20473;-88
2022/09/18 00:47:06;;;;;;;0.00;0.00;;;11.70;99.90;;;;;;5051749;28;20445;-88
2022/09/18 00:49:35;;;;;;;0.00;0.00;;;11.80;99.90;;;;;;5056956;28;20429;-87
2022/09/18 00:52:05;;;;;;;0.00;0.00;;;11.70;99.90;;;;;;5056770;28;20436;-88
2022/09/18 00:54:36;;;;;;;0.00;0.00;;;11.80;99.90;;;;;;5056531;28;20425;-88
2022/09/18 00:57:08;;;;;;;0.00;0.00;;;11.90;99.90;;;;;;5053542;28;20418;-88
2022/09/18 00:59:37;;;;;;;0.00;0.00;;;11.90;99.90;;;;;;5051168;28;20531;-89
2022/09/18 01:02:06;;;;;;;0.00;0.00;;;11.90;99.90;;;;;;5053269;28;20459;-88
2022/09/18 01:04:34;;;;;;;0.00;0.00;;;11.90;99.90;;;;;;5052395;28;20539;-88
2022/09/18 01:07:09;;;;;;;0.00;0.00;;;11.90;99.90;;;;;;5052878;28;20421;-88
2022/09/18 01:09:47;;;;;;;0.00;0.00;;;12.00;99.90;;;;;;5050224;28;20464;-88
2022/09/18 01:12:22;;;;;;;0.00;0.00;;;12.00;99.90;;;;;;5051934;28;20931;-88
2022/09/18 01:14:57;;;;;;;0.00;0.00;;;12.00;99.90;;;;;;5051839;28;20429;-88
2022/09/18 01:17:31;;;;;;;0.00;0.00;;;12.00;99.90;;;;;;5051416;28;20506;-87
2022/09/18 01:20:24;;;;;;;0.00;0.00;;;12.00;99.90;;;;;;5052010;28;20465;-88
2022/09/18 01:23:06;;;;;;;0.00;0.00;;;12.00;99.90;;;;;;5050845;28;20940;-88
2022/09/18 01:25:44;;;;;;;0.00;0.00;;;12.00;99.90;;;;;;5054218;28;20472;-88
2022/09/18 01:28:20;;;;;;;0.00;0.00;;;11.90;99.90;;;;;;5051292;28;20425;-90
2022/09/18 01:30:50;;;;;;;0.00;0.00;;;12.00;99.90;;;;;;5048276;28;20477;-89
2022/09/18 01:33:25;;;;;;;0.00;0.00;;;11.90;99.90;;;;;;5045084;28;20472;-89
2022/09/18 01:35:58;;;;;;;0.00;0.00;;;11.90;99.90;;;;;;5045277;28;20847;-89
2022/09/18 01:38:32;;;;;;;0.00;0.00;;;11.90;99.90;;;;;;5044131;28;20488;-89
2022/09/18 01:41:05;;;;;;;0.00;0.00;;;11.90;99.90;;;;;;5045585;28;20469;-88
2022/09/18 01:43:36;;;;;;;0.00;0.00;;;11.80;99.90;;;;;;5046985;28;20437;-89
2022/09/18 01:46:09;;;;;;;0.00;0.00;;;11.80;99.90;;;;;;5042535;28;20452;-89
2022/09/18 01:48:42;;;;;;;0.00;0.00;;;11.70;99.90;;;;;;5047202;28;20425;-89
2022/09/18 01:51:22;;;;;;;0.00;0.00;;;11.60;99.90;;;;;;5055510;28;20477;-89
2022/09/18 01:53:54;;;;;;;0.00;0.00;;;11.50;99.90;;;;;;5049070;28;20413;-89
2022/09/18 01:56:26;;;;;;;0.00;0.00;;;11.50;99.90;;;;;;5042976;28;20481;-89
2022/09/18 01:58:58;;;;;;;0.00;0.00;;;11.50;99.90;;;;;;5043593;28;20449;-89
2022/09/18 02:01:29;;;;;;;0.00;0.00;;;11.40;99.90;;;;;;5041240;28;20533;-89
2022/09/18 02:04:00;;;;;;;0.00;0.00;;;11.40;99.90;;;;;;5040465;28;20485;-89
2022/09/18 02:06:32;;;;;;;0.00;0.00;;;11.30;99.90;;;;;;5041572;28;20798;-89
2022/09/18 02:09:02;;;;;;;0.00;0.00;;;11.30;99.90;;;;;;5040953;28;20445;-89
2022/09/18 02:11:33;;;;;;;0.00;0.00;;;11.30;99.90;;;;;;5041496;28;20475;-89
2022/09/18 02:14:07;;;;;;;0.00;0.00;;;11.50;99.90;;;;;;5042796;28;20487;-89
2022/09/18 02:19:31;;;;;;;0.00;0.00;;;11.50;99.90;;;;;;5625946;22;20559;-90
2022/09/18 02:22:03;;;;;;;0.00;0.00;;;11.50;99.90;;;;;;5000371;28;20470;-89
2022/09/18 02:24:34;;;;;;;0.00;0.00;;;11.40;99.90;;;;;;5005575;28;20478;-89
2022/09/18 02:27:05;;;;;;;0.00;0.00;;;11.30;99.90;;;;;;5005315;28;20461;-90
2022/09/18 02:29:36;;;;;;;0.00;0.00;;;11.40;99.90;;;;;;5005331;28;20439;-90
2022/09/18 02:32:04;;;;;;;0.00;0.00;;;11.30;99.90;;;;;;5006707;28;20439;-90
2022/09/18 02:34:33;;;;;;;0.00;0.00;;;11.20;99.90;;;;;;5002907;28;20489;-89
2022/09/18 02:37:11;;;;;;;0.00;0.00;;;11.10;99.90;;;;;;5004362;28;20964;-89
2022/09/18 02:39:47;;;;;;;0.00;0.00;;;11.10;99.90;;;;;;5014908;28;20447;-90
2022/09/18 02:42:26;;;;;;;0.00;0.00;;;11.20;99.90;;;;;;5008858;28;20464;-89
2022/09/18 02:45:02;;;;;;;0.00;0.00;;;11.20;99.90;;;;;;5000069;28;20501;-91
2022/09/18 02:47:39;;;;;;;0.00;0.00;;;11.20;99.90;;;;;;5001072;28;20454;-90
2022/09/18 02:50:15;;;;;;;0.00;0.00;;;11.20;99.90;;;;;;5001468;28;20458;-90
2022/09/18 02:52:50;;;;;;;0.00;0.00;;;11.20;99.90;;;;;;5001823;28;20455;-91
2022/09/18 02:55:24;;;;;;;0.00;0.00;;;11.20;99.90;;;;;;5003286;28;20443;-90
2022/09/18 02:57:56;;;;;;;0.00;0.00;;;11.20;99.90;;;;;;5002853;28;20447;-90
2022/09/18 03:00:27;;;;;;;0.00;0.00;;;11.10;99.90;;;;;;4999326;28;20877;-89
2022/09/18 03:02:57;;;;;;;0.00;0.00;;;11.00;99.90;;;;;;4999611;28;20483;-90
2022/09/18 03:05:25;;;;;;;0.00;0.00;;;10.80;99.90;;;;;;5000362;28;20905;-89
2022/09/18 03:07:56;;;;;;;0.00;0.00;;;10.70;99.90;;;;;;5000110;28;20443;-89
2022/09/18 03:10:24;;;;;;;0.00;0.00;;;10.70;99.90;;;;;;4999660;28;20220;-89
2022/09/18 03:12:55;;;;;;;0.00;0.00;;;10.60;99.90;;;;;;4999562;28;20513;-89
2022/09/18 03:15:22;;;;;;;0.00;0.00;;;10.60;99.90;;;;;;4999057;28;20419;-88
2022/09/18 03:17:52;;;;;;;0.00;0.00;;;10.60;99.90;;;;;;4998231;28;20458;-88
2022/09/18 03:20:19;;;;;;;0.00;0.00;;;10.60;99.90;;;;;;5001341;28;20974;-88
2022/09/18 03:22:48;;;;;;;0.00;0.00;;;10.60;99.90;;;;;;5001957;28;20463;-88
2022/09/18 03:25:16;;;;;;;0.00;0.00;;;10.60;99.90;;;;;;5001185;28;20898;-88
2022/09/18 03:27:44;;;;;;;0.00;0.00;;;10.70;99.90;;;;;;5000709;28;20489;-88
2022/09/18 03:30:12;;;;;;;0.00;0.00;;;10.70;99.90;;;;;;5000056;28;20502;-87
2022/09/18 03:32:40;;;;;;;0.00;0.00;;;10.70;99.90;;;;;;4999712;28;20447;-88
2022/09/18 03:35:10;;;;;;;0.00;0.00;;;10.70;99.90;;;;;;4999580;28;20443;-88
2022/09/18 03:37:38;;;;;;;0.00;0.00;;;10.70;99.90;;;;;;4999668;28;20436;-89
2022/09/18 03:40:07;;;;;;;0.00;0.00;;;10.70;99.90;;;;;;5003536;28;20623;-88
2022/09/18 03:42:35;;;;;;;0.00;0.00;;;10.60;99.90;;;;;;5017089;28;20459;-88
2022/09/18 03:45:03;;;;;;;0.00;0.00;;;10.60;99.90;;;;;;5007396;28;20561;-89
2022/09/18 03:47:31;;;;;;;0.00;0.00;;;10.60;99.90;;;;;;5002748;28;20439;-89
2022/09/18 03:50:03;;;;;;;0.00;0.00;;;10.60;99.90;;;;;;5002153;28;20262;-89
2022/09/18 03:52:33;;;;;;;0.00;0.00;;;10.50;99.90;;;;;;5001864;28;20454;-89
2022/09/18 03:55:00;;;;;;;0.00;0.00;;;10.30;99.90;;;;;;5001818;28;20435;-89
2022/09/18 03:57:28;;;;;;;0.00;0.00;;;10.20;99.90;;;;;;5002238;28;20435;-89
2022/09/18 03:59:56;;;;;;;0.00;0.00;;;10.20;99.90;;;;;;5002318;28;20485;-88
2022/09/18 04:02:24;;;;;;;0.00;0.00;;;10.10;99.90;;;;;;5001884;28;20451;-89
2022/09/18 04:04:52;;;;;;;0.00;0.00;;;10.10;99.90;;;;;;5001749;28;20455;-88
2022/09/18 04:07:20;;;;;;;0.00;0.00;;;10.20;99.90;;;;;;5001223;28;20561;-88
2022/09/18 04:09:49;;;;;;;0.00;0.00;;;10.30;99.90;;;;;;5001416;28;20860;-88
2022/09/18 04:12:17;;;;;;;0.00;0.00;;;10.40;99.90;;;;;;5001034;28;20203;-89
2022/09/18 04:14:45;;;;;;;0.00;0.00;;;10.50;99.90;;;;;;5001138;28;20445;-88
2022/09/18 04:17:13;;;;;;;0.00;0.00;;;10.50;99.90;;;;;;5001287;28;20505;-88
2022/09/18 04:19:41;;;;;;;0.00;0.00;;;10.50;99.90;;;;;;5000602;28;20255;-87
2022/09/18 04:22:09;;;;;;;0.00;0.00;;;10.50;99.90;;;;;;5000807;28;20458;-87
2022/09/18 04:24:38;;;;;;;0.00;0.00;;;10.50;99.90;;;;;;5001148;28;20933;-88
2022/09/18 04:27:08;;;;;;;0.00;0.00;;;10.50;99.90;;;;;;5000866;28;20219;-88
2022/09/18 04:29:35;;;;;;;0.00;0.00;;;10.50;99.90;;;;;;5000332;28;20469;-87
2022/09/18 04:32:04;;;;;;;0.00;0.00;;;10.50;99.90;;;;;;4981345;28;20454;-89
2022/09/18 04:34:32;;;;;;;0.00;0.00;;;10.50;99.90;;;;;;4981797;28;20451;-88
2022/09/18 04:37:00;;;;;;;0.00;0.00;;;10.50;99.90;;;;;;4981609;28;20208;-89
2022/09/18 04:39:28;;;;;;;0.00;0.00;;;10.40;99.90;;;;;;4981239;28;20567;-89
2022/09/18 04:41:56;;;;;;;0.00;0.00;;;10.40;99.90;;;;;;4998978;28;20483;-88
2022/09/18 04:44:25;;;;;;;0.00;0.00;;;10.40;99.90;;;;;;5011780;28;20466;-89
2022/09/18 04:46:53;;;;;;;0.00;0.00;;;10.40;99.90;;;;;;5007433;28;20490;-88
2022/09/18 04:49:21;;;;;;;0.00;0.00;;;10.40;99.90;;;;;;5000353;28;20455;-89
2022/09/18 04:51:49;;;;;;;0.00;0.00;;;10.40;99.90;;;;;;5000579;28;20726;-89
2022/09/18 04:54:17;;;;;;;0.00;0.00;;;10.30;99.90;;;;;;5000649;28;20466;-90
2022/09/18 04:56:45;;;;;;;0.00;0.00;;;10.30;99.90;;;;;;5001236;28;20212;-88
2022/09/18 04:59:13;;;;;;;0.00;0.00;;;10.20;99.90;;;;;;5001028;28;20435;-89
2022/09/18 05:01:42;;;;;;;0.00;0.00;;;10.20;99.90;;;;;;5000496;28;20463;-87
2022/09/18 05:04:10;;;;;;;0.00;0.00;;;10.20;99.90;;;;;;4993154;28;20436;-89
2022/09/18 05:06:39;;;;;;;0.00;0.00;;;10.20;99.90;;;;;;5003714;28;20473;-89
2022/09/18 05:09:06;;;;;;;0.00;0.00;;;10.20;99.90;;;;;;5002537;28;20464;-90
2022/09/18 05:11:34;;;;;;;0.00;0.00;;;10.20;99.90;;;;;;5005171;28;20468;-90
2022/09/18 05:14:02;;;;;;;0.00;0.00;;;10.20;99.90;;;;;;5015663;28;20204;-90
2022/09/18 05:16:30;;;;;;;0.00;0.00;;;10.30;99.90;;;;;;5012698;28;20431;-90
2022/09/18 05:18:59;;;;;;;0.00;0.00;;;10.30;99.90;;;;;;5015272;28;20451;-90
2022/09/18 05:21:27;;;;;;;0.00;0.00;;;10.50;99.90;;;;;;5014075;28;20494;-90
2022/09/18 05:23:55;;;;;;;0.00;0.00;;;10.60;99.90;;;;;;5013214;28;20207;-90
2022/09/18 05:26:23;;;;;;;0.00;0.00;;;10.70;99.90;;;;;;5013733;28;20471;-90
2022/09/18 05:28:56;;;;;;;0.00;0.00;;;10.80;99.90;;;;;;5016649;28;20443;-91
2022/09/18 05:31:24;;;;;;;0.00;0.00;;;10.80;99.90;;;;;;5017089;28;20459;-92
2022/09/18 05:33:52;;;;;;;0.00;0.00;;;10.80;99.90;;;;;;5015246;28;20550;-91
2022/09/18 05:36:21;;;;;;;0.00;0.00;;;10.80;99.90;;;;;;5015220;28;20989;-92
2022/09/18 05:38:50;;;;;;;0.00;0.00;;;10.90;99.90;;;;;;5015727;28;20451;-91
2022/09/18 05:41:18;;;;;;;0.00;0.00;;;11.00;99.90;;;;;;5013691;28;20469;-88
2022/09/18 05:43:46;;;;;;;0.00;0.00;;;10.90;99.90;;;;;;5011361;28;20443;-88
2022/09/18 05:46:14;;;;;;;0.00;0.00;;;11.00;99.90;;;;;;5012699;28;20479;-90
2022/09/18 05:48:42;;;;;;;0.00;0.00;;;11.00;99.90;;;;;;5018492;28;20428;-87
2022/09/18 05:51:10;;;;;;;0.00;0.00;;;11.10;99.90;;;;;;5010512;28;20462;-90
2022/09/18 05:53:40;;;;;;;0.00;0.00;;;11.10;99.90;;;;;;5008802;28;20466;-88
2022/09/18 05:56:08;;;;;;;0.00;0.00;;;11.00;99.90;;;;;;4999243;28;20954;-90
2022/09/18 05:58:36;;;;;;;0.00;0.00;;;11.00;99.90;;;;;;4998690;28;20459;-89
2022/09/18 06:01:04;;;;;;;0.00;0.00;;;11.00;99.90;;;;;;4999928;28;20227;-86
2022/09/18 06:03:32;;;;;;;0.00;0.00;;;11.00;99.90;;;;;;4999630;28;20570;-88
2022/09/18 06:06:00;;;;;;;0.00;0.00;;;11.00;99.90;;;;;;4999987;28;20968;-89
2022/09/18 06:08:28;;;;;;;0.00;0.00;;;11.00;99.90;;;;;;4999423;28;20470;-88
2022/09/18 06:11:05;;;;;;;0.00;0.00;;;11.00;99.90;;;;;;4999395;28;20470;-89
2022/09/18 06:13:40;;;;;;;0.00;0.00;;;11.00;99.90;;;;;;4999104;28;20489;-90
2022/09/18 06:16:08;;;;;;;0.00;0.00;;;11.10;99.90;;;;;;4998954;28;20454;-90
2022/09/18 06:18:37;;;;;;;0.00;0.00;;;11.10;99.90;;;;;;4998210;28;20502;-90
2022/09/18 06:21:08;;;;;;;0.00;0.00;;;11.10;99.90;;;;;;4998137;28;20549;-88
2022/09/18 06:23:35;;;;;;;0.00;0.00;;;11.20;99.90;;;;;;4996290;28;20443;-89
2022/09/18 06:26:06;;;;;;;0.00;0.00;;;11.30;99.90;;;;;;4999275;28;20451;-90
2022/09/18 06:28:39;;;;;;;0.00;0.00;;;11.30;99.90;;;;;;4996261;28;20474;-89
2022/09/18 06:31:09;;;;;;;0.00;0.00;;;11.30;99.90;;;;;;5001078;28;20510;-89
2022/09/18 06:33:41;;;;;;;0.00;0.00;;;11.30;99.90;;;;;;4998015;28;20486;-88
2022/09/18 06:36:13;;;;;;;0.00;0.00;;;11.20;99.90;;;;;;5000391;28;20435;-89
2022/09/18 06:38:43;;;;;;;0.00;0.00;;;11.20;99.90;;;;;;5000744;28;20459;-90
2022/09/18 06:41:12;;;;;;;0.00;0.00;;;11.20;99.90;;;;;;4999415;28;20491;-89
2022/09/18 06:43:40;;;;;;;0.00;0.00;;;11.20;99.90;;;;;;5000979;28;20443;-89
2022/09/18 06:46:12;;;;;;;0.00;0.00;;;11.20;99.90;;;;;;5000914;28;20442;-89
2022/09/18 06:48:40;;;;;;;0.00;0.00;;;11.30;99.90;;;;;;5003940;28;20427;-89
2022/09/18 06:51:09;;;;;;;0.00;0.00;;;11.50;99.90;;;;;;5015569;28;20490;-89
2022/09/18 06:53:37;;;;;;;0.00;0.00;;;11.50;99.90;;;;;;5002395;28;20538;-90
2022/09/18 06:56:05;;;;;;;0.00;0.00;;;11.60;99.90;;;;;;5003507;28;20977;-90
2022/09/18 06:58:37;;;;;;;0.00;0.00;;;11.60;99.90;;;;;;5003633;28;20455;-89
2022/09/18 07:01:05;;;;;;;0.00;0.00;;;11.60;99.90;;;;;;5002498;28;20494;-88
2022/09/18 07:03:33;;;;;;;0.00;0.00;;;11.60;99.90;;;;;;5003157;28;20483;-88
2022/09/18 07:06:01;;;;;;;0.00;0.00;;;11.60;99.90;;;;;;5002769;28;20447;-90
2022/09/18 07:08:33;;;;;;;0.00;0.00;;;11.50;99.90;;;;;;5003139;28;20483;-91
2022/09/18 07:11:10;;;;;;;0.00;0.00;;;11.40;99.90;;;;;;5003315;28;20474;-88
2022/09/18 07:13:39;;;;;;;0.00;0.00;;;11.30;99.90;;;;;;5003672;28;20545;-89
2022/09/18 07:16:07;;;;;;;0.00;0.00;;;11.20;99.90;;;;;;5003107;28;20458;-87
2022/09/18 07:18:37;;;;;;;0.00;0.00;;;11.20;99.90;;;;;;5001869;28;20498;-90
2022/09/18 07:21:05;;;;;;;0.00;0.00;;;11.30;99.90;;;;;;5001935;28;20502;-88
2022/09/18 07:23:34;;;;;;;0.00;0.00;;;11.30;99.90;;;;;;5003260;28;20435;-88
2022/09/18 07:26:03;;;;;;;0.00;0.00;;;11.30;99.90;;;;;;5003710;28;20481;-88
2022/09/18 07:28:32;;;;;;;0.00;0.00;;;11.30;99.90;;;;;;5002687;28;20512;-88
2022/09/18 07:31:04;;;;;;;0.00;0.00;;;11.30;99.90;;;;;;5002103;28;20493;-88
2022/09/18 07:33:36;;;;;;;0.00;0.00;;;11.40;99.90;;;;;;5002062;28;20455;-88
2022/09/18 07:36:05;;;;;;;0.00;0.00;;;11.70;99.90;;;;;;5002116;28;20443;-89
2022/09/18 07:38:34;;;;;;;0.00;0.00;;;11.80;99.90;;;;;;4999360;28;20441;-88
2022/09/18 07:41:02;;;;;;;0.00;0.00;;;11.80;99.90;;;;;;5003139;28;20457;-86
2022/09/18 07:43:30;;;;;;;0.00;0.00;;;11.70;99.90;;;;;;5002783;28;20450;-87
2022/09/18 07:45:58;;;;;;;0.00;0.00;;;11.60;99.90;;;;;;5001100;28;20945;-87
2022/09/18 07:48:27;;;;;;;0.00;0.00;;;11.50;99.90;;;;;;5004030;28;20882;-88
2022/09/18 07:50:57;;;;;;;0.00;0.00;;;11.50;99.90;;;;;;5003138;28;20493;-87
2022/09/18 07:53:26;;;;;;;0.00;0.00;;;11.40;99.90;;;;;;5010706;28;20439;-86
2022/09/18 07:55:54;;;;;;;0.00;0.00;;;11.40;99.90;;;;;;5013520;28;20443;-88
2022/09/18 07:58:23;;;;;;;0.00;0.00;;;11.30;99.90;;;;;;5002567;28;20936;-86
2022/09/18 08:00:51;;;;;;;0.00;0.00;;;11.30;99.90;;;;;;5003444;28;20471;-87
2022/09/18 08:03:19;;;;;;;0.00;0.00;;;11.30;99.90;;;;;;5000978;28;20836;-87
2022/09/18 08:05:48;;;;;;;0.00;0.00;;;11.40;99.90;;;;;;5000398;28;20427;-85
2022/09/18 08:08:16;;;;;;;0.00;0.00;;;11.50;99.90;;;;;;4999653;28;20493;-85
2022/09/18 08:10:44;;;;;;;0.00;0.00;;;11.70;99.90;;;;;;5000094;28;21045;-87
2022/09/18 08:13:12;;;;;;;0.00;0.00;;;11.90;99.90;;;;;;4999000;28;20431;-87
2022/09/18 08:15:41;;;;;;;0.00;0.00;;;12.10;99.90;;;;;;4999638;28;20509;-85
2022/09/18 08:18:10;;;;;;;0.00;0.00;;;12.10;99.90;;;;;;4998751;28;20471;-85
2022/09/18 08:20:38;;;;;;;0.00;0.00;;;12.10;99.90;;;;;;4998528;28;20455;-86
2022/09/18 08:23:11;;;;;;;0.00;0.00;;;12.20;99.90;;;;;;4998919;28;20454;-87
2022/09/18 08:25:41;;;;;;;0.00;0.00;;;12.20;99.90;;;;;;5001285;28;20450;-87
2022/09/18 08:28:10;;;;;;;0.00;0.00;;;12.20;99.90;;;;;;5001514;28;20490;-87
2022/09/18 08:30:38;;;;;;;0.00;0.00;;;12.20;99.90;;;;;;5001370;28;20459;-86
2022/09/18 08:33:08;;;;;;;0.00;0.00;;;12.50;99.90;;;;;;5000736;28;20454;-87
2022/09/18 08:35:36;;;;;;;0.00;0.00;;;12.80;99.90;;;;;;5001907;28;20449;-88
2022/09/18 08:38:05;;;;;;;0.00;0.00;;;13.20;99.90;;;;;;5000366;28;20863;-87
2022/09/18 08:40:55;;;;;;;0.00;0.00;;;13.40;99.90;;;;;;5000492;28;20478;-87
2022/09/18 08:43:44;;;;;;;0.00;0.00;;;13.50;99.90;;;;;;5002354;28;20455;-88
2022/09/18 08:46:17;;;;;;;0.00;0.00;;;13.40;99.90;;;;;;5001839;28;20435;-86
2022/09/18 08:49:01;;;;;;;0.00;0.00;;;13.30;99.90;;;;;;5004441;28;20518;-88
2022/09/18 08:51:47;;;;;;;0.00;0.00;;;13.10;99.90;;;;;;5008235;28;20540;-87
2022/09/18 08:54:29;;;;;;;0.00;0.00;;;12.80;99.90;;;;;;5010483;28;20450;-86
2022/09/18 08:57:14;;;;;;;0.00;0.00;;;12.70;99.90;;;;;;5016805;28;20513;-88
2022/09/18 08:59:49;;;;;;;0.00;0.00;;;12.60;99.90;;;;;;5010579;28;20453;-89
2022/09/18 09:02:43;;;;;;;0.00;0.00;;;12.50;99.90;;;;;;5011024;28;20470;-89
2022/09/18 09:05:15;;;;;;;0.00;0.00;;;12.30;99.90;;;;;;5002405;28;20421;-90
2022/09/18 09:08:12;;;;;;;0.00;0.00;;;12.10;99.90;;;;;;5003447;28;20971;-89
2022/09/18 09:10:47;;;;;;;0.00;0.00;;;12.20;99.90;;;;;;5000746;28;20997;-89
2022/09/18 09:13:52;;;;;;;0.00;0.00;;;12.40;99.90;;;;;;5002885;28;20474;-91
2022/09/18 09:16:32;;;;;;;0.00;0.00;;;12.50;99.90;;;;;;4999415;28;20454;-87
2022/09/18 09:19:01;;;;;;;0.00;0.00;;;12.60;99.90;;;;;;4998618;28;20471;-87
2022/09/18 09:21:53;;;;;;;0.00;0.00;;;12.60;99.90;;;;;;4982146;28;20472;-88
2022/09/18 09:24:31;;;;;;;0.00;0.00;;;12.60;99.90;;;;;;4982559;28;20475;-86
2022/09/18 09:27:19;;;;;;;0.00;0.00;;;12.60;99.90;;;;;;4980863;28;20452;-87
2022/09/18 09:29:49;;;;;;;0.00;0.00;;;12.60;99.90;;;;;;4982735;28;20538;-86
2022/09/18 09:32:26;;;;;;;0.00;0.00;;;12.90;99.90;;;;;;4980992;28;20416;-87
2022/09/18 09:35:03;;;;;;;0.00;0.00;;;12.90;99.90;;;;;;4982117;28;20448;-89
2022/09/18 09:37:39;;;;;;;0.00;0.00;;;12.90;99.90;;;;;;4982472;28;20569;-88
2022/09/18 09:40:15;;;;;;;0.00;0.00;;;12.80;99.90;;;;;;4982726;28;21032;-86
2022/09/18 09:42:50;;;;;;;0.00;0.00;;;12.70;99.90;;;;;;4999285;28;20447;-89
2022/09/18 09:45:24;;;;;;;0.00;0.00;;;12.60;99.90;;;;;;5000378;28;20454;-87
2022/09/18 09:48:04;;;;;;;0.00;0.00;;;12.60;99.90;;;;;;5003057;28;20450;-91
2022/09/18 09:50:44;;;;;;;0.00;0.00;;;12.60;99.90;;;;;;5001831;28;20463;-86
2022/09/18 09:53:13;;;;;;;0.00;0.00;;;12.50;99.90;;;;;;5000202;28;20465;-87
2022/09/18 09:55:55;;;;;;;0.00;0.00;;;12.50;99.90;;;;;;4999566;28;20435;-87
2022/09/18 09:58:37;;;;;;;0.00;0.00;;;12.50;99.90;;;;;;5008622;28;20534;-86
2022/09/18 10:01:12;;;;;;;0.00;0.00;;;12.50;99.90;;;;;;5009324;28;20473;-87
2022/09/18 10:03:55;;;;;;;0.00;0.00;;;12.60;99.90;;;;;;5000087;28;20450;-88
2022/09/18 10:06:41;;;;;;;0.00;0.00;;;12.60;99.90;;;;;;5000349;28;20478;-88
2022/09/18 10:09:15;;;;;;;0.00;0.00;;;12.70;99.90;;;;;;4999906;28;20467;-87
2022/09/18 10:11:51;;;;;;;0.00;0.00;;;12.70;99.90;;;;;;4998573;28;20478;-87
2022/09/18 10:14:27;;;;;;;0.00;0.00;;;12.70;99.90;;;;;;4999971;28;20419;-87
2022/09/18 10:16:57;;;;;;;0.00;0.00;;;12.80;99.90;;;;;;4999319;28;20451;-86
2022/09/18 10:19:35;;;;;;;0.00;0.00;;;12.80;99.90;;;;;;4999532;28;20447;-87
2022/09/18 10:22:06;;;;;;;0.00;0.00;;;12.90;99.90;;;;;;4999407;28;20488;-87
2022/09/18 10:24:45;;;;;;;0.00;0.00;;;13.00;99.90;;;;;;5000195;28;20427;-86
2022/09/18 10:27:15;;;;;;;0.00;0.00;;;13.00;99.90;;;;;;4999234;28;20850;-88
2022/09/18 10:29:43;;;;;;;0.00;0.00;;;13.00;99.90;;;;;;4999364;28;20506;-88
2022/09/18 10:32:11;;;;;;;0.00;0.00;;;13.10;99.90;;;;;;4999134;28;20447;-86
2022/09/18 10:34:44;;;;;;;0.00;0.00;;;13.20;99.90;;;;;;4990335;28;20463;-84
2022/09/18 10:37:18;;;;;;;0.00;0.00;;;13.30;99.90;;;;;;4979206;28;20455;-87
2022/09/18 10:39:52;;;;;;;0.00;0.00;;;13.40;99.90;;;;;;4977166;28;20475;-87
2022/09/18 10:42:23;;;;;;;0.00;0.00;;;13.60;99.90;;;;;;4977489;28;20783;-87
2022/09/18 10:44:57;;;;;;;0.00;0.00;;;13.80;99.90;;;;;;4977218;28;20840;-88
2022/09/18 10:47:31;;;;;;;0.00;0.00;;;14.10;99.90;;;;;;4979173;28;20462;-89
2022/09/18 10:50:07;;;;;;;0.00;0.00;;;14.20;99.90;;;;;;4980803;28;20483;-87
2022/09/18 10:52:47;;;;;;;0.00;0.00;;;14.30;99.90;;;;;;4982648;28;20454;-91
2022/09/18 10:55:24;;;;;;;0.00;0.00;;;14.20;99.90;;;;;;4984861;28;20550;-90
2022/09/18 10:58:07;;;;;;;0.00;0.00;;;14.10;99.90;;;;;;4981121;28;20989;-89
2022/09/18 11:00:41;;;;;;;0.00;0.00;;;13.60;99.90;;;;;;4984096;28;20520;-87
2022/09/18 11:03:37;;;;;;;0.00;0.00;;;13.10;99.90;;;;;;4989990;28;20455;-87
2022/09/18 11:06:18;;;;;;;0.00;0.00;;;12.50;99.90;;;;;;4979890;28;20478;-89
2022/09/18 11:12:17;;;;;;;0.00;0.00;;;11.80;99.90;;;;;;4969527;28;20455;-88
2022/09/18 11:15:17;;;;;;;0.00;0.00;;;11.60;99.90;;;;;;5000680;28;20953;-88
2022/09/18 11:17:52;;;;;;;0.00;0.00;;;11.30;99.90;;;;;;4940151;29;20553;-90
2022/09/18 11:20:23;;;;;;;0.00;0.00;;;11.20;99.90;;;;;;4968584;22;20569;-70
2022/09/18 11:22:53;;;;;;;0.00;0.00;;;11.20;99.90;;;;;;4993801;28;20623;-70
2022/09/18 11:25:25;;;;;;;0.00;0.00;;;11.20;99.90;;;;;;4993072;28;20455;-70
2022/09/18 11:27:55;;;;;;;0.00;0.00;;;11.30;99.90;;;;;;4993190;28;20485;-70
2022/09/18 11:30:26;;;;;;;0.00;0.00;;;11.40;99.90;;;;;;4993040;28;20482;-71
2022/09/18 11:32:59;;;;;;;0.00;0.00;;;11.60;99.90;;;;;;4990353;28;20830;-70
2022/09/18 11:35:29;;;;;;;0.00;0.00;;;11.70;99.90;;;;;;4992394;28;20443;-71
2022/09/18 11:38:05;;;;;;;0.00;0.00;;;11.70;99.90;;;;;;4992989;28;20458;-70
2022/09/18 11:40:44;;;;;;;0.00;0.00;;;11.90;99.90;;;;;;4994327;28;20467;-71
2022/09/18 11:43:15;;;;;;;0.00;0.00;;;12.00;99.90;;;;;;4996730;28;20888;-70
2022/09/18 11:45:51;;;;;;;0.00;0.00;;;12.20;99.90;;;;;;4993502;28;20456;-71
2022/09/18 11:48:28;;;;;;;0.00;0.00;;;12.40;99.90;;;;;;4994731;28;20462;-71
2022/09/18 11:51:00;;;;;;;0.00;0.00;;;12.60;99.90;;;;;;4984258;28;20491;-76
2022/09/18 11:53:33;;;;;;;0.00;0.00;;;12.80;99.90;;;;;;4978356;28;20451;-73
2022/09/18 11:56:06;;;;;;;0.00;0.00;;;12.90;99.90;;;;;;4995597;28;20443;-71
2022/09/18 11:58:41;;;;;;;0.00;0.00;;;12.70;99.90;;;;;;4995615;28;20458;-70
2022/09/18 12:01:18;;;;;;;0.00;0.00;;;12.50;99.90;;;;;;4996160;28;20484;-71
2022/09/18 12:03:54;;;;;;;0.00;0.00;;;12.10;99.90;;;;;;4995225;28;20442;-72
2022/09/18 12:06:31;;;;;;;0.00;0.00;;;11.80;99.90;;;;;;4995396;28;20443;-72
2022/09/18 12:09:05;;;;;;;0.00;0.00;;;11.50;99.90;;;;;;4993806;28;20485;-70
2022/09/18 12:11:38;;;;;;;0.00;0.00;;;11.40;99.90;;;;;;4995983;28;20989;-70
2022/09/18 12:14:14;;;;;;;0.00;0.00;;;11.20;99.90;;;;;;4998363;28;20440;-71
2022/09/18 12:16:47;;;;;;;0.00;0.00;;;11.20;99.90;;;;;;4996393;28;20843;-71
2022/09/18 12:19:21;;;;;;;0.00;0.00;;;11.20;99.90;;;;;;4994661;28;20899;-71
2022/09/18 12:21:54;;;;;;;0.00;0.00;;;11.20;99.90;;;;;;4993867;28;20872;-72
2022/09/18 12:24:26;;;;;;;0.00;0.00;;;11.20;99.90;;;;;;4988195;28;20452;-71
2022/09/18 12:27:10;;;;;;;0.00;0.00;;;11.30;99.90;;;;;;4988791;28;20451;-72
2022/09/18 12:29:50;;;;;;;0.00;0.00;;;11.40;99.90;;;;;;4994978;28;20482;-71
2022/09/18 12:32:35;;;;;;;0.00;0.00;;;11.50;99.90;;;;;;4992881;28;20446;-71
2022/09/18 12:35:14;;;;;;;0.00;0.00;;;11.60;99.90;;;;;;4994423;28;20501;-72
2022/09/18 12:37:50;;;;;;;0.00;0.00;;;11.90;99.90;;;;;;4996226;28;20493;-71
2022/09/18 12:40:52;;;;;;;0.00;0.00;;;12.10;99.90;;;;;;4996022;28;20451;-70
2022/09/18 12:43:53;;;;;;;0.00;0.00;;;12.30;99.90;;;;;;4976301;28;20808;-71
2022/09/18 12:46:49;;;;;;;0.00;0.00;;;12.50;99.90;;;;;;4972981;28;20463;-70
2022/09/18 12:49:35;;;;;;;0.00;0.00;;;12.60;99.90;;;;;;4994878;28;20952;-71
2022/09/18 12:52:11;;;;;;;0.00;0.00;;;12.60;99.90;;;;;;4991875;28;20853;-71
2022/09/18 12:54:53;;;;;;;0.00;0.00;;;12.50;99.90;;;;;;4975739;28;20511;-73
2022/09/18 12:57:35;;;;;;;0.00;0.00;;;12.50;99.90;;;;;;4980834;28;20574;-72
2022/09/18 13:00:11;;;;;;;0.00;0.00;;;12.30;99.90;;;;;;4975412;28;20468;-73
2022/09/18 13:02:52;;;;;;;0.00;0.00;;;12.10;99.90;;;;;;4985283;28;20446;-72
2022/09/18 13:05:26;;;;;;;0.00;0.00;;;12.00;99.90;;;;;;4992803;28;20537;-72
2022/09/18 13:08:00;;;;;;;0.00;0.00;;;11.90;99.90;;;;;;4983812;28;21016;-74
2022/09/18 13:10:32;;;;;;;0.00;0.00;;;11.80;99.90;;;;;;4994195;28;20545;-72
2022/09/18 13:13:09;;;;;;;0.00;0.00;;;11.70;99.90;;;;;;4994326;28;20993;-72
2022/09/18 13:15:45;;;;;;;0.00;0.00;;;11.80;99.90;;;;;;4986050;28;20529;-72
2022/09/18 13:18:23;;;;;;;0.00;0.00;;;12.00;99.90;;;;;;4980903;28;20586;-70
2022/09/18 13:20:53;;;;;;;0.00;0.00;;;12.20;99.90;;;;;;4975263;28;21053;-73
2022/09/18 13:23:25;;;;;;;0.00;0.00;;;12.30;99.90;;;;;;4975275;28;20514;-73